sensor_id;sensor_type;location;lat;lon;timestamp;P1;durP1;ratioP1;P2;durP2;ratioP2
12925;SDS011;6529;50.566;9.774;2022-08-02T00:01:40;1.70;;;1.60;;
12925;SDS011;6529;50.566;9.774;2022-08-02T00:04:07;1.70;;;1.60;;
12925;SDS011;6529;50.566;9.774;2022-08-02T00:06:32;1.70;;;1.60;;
12925;SDS011;6529;50.566;9.774;2022-08-02T00:08:58;1.90;;;1.60;;
12925;SDS011;6529;50.566;9.774;2022-08-02T00:11:24;1.57;;;1.47;;
12925;SDS011;6529;50.566;9.774;2022-08-02T00:13:50;1.70;;;1.60;;
12925;SDS011;6529;50.566;9.774;2022-08-02T00:16:16;2.27;;;1.70;;
12925;SDS011;6529;50.566;9.774;2022-08-02T00:18:41;1.80;;;1.70;;
12925;SDS011;6529;50.566;9.774;2022-08-02T00:21:07;3.27;;;1.80;;
12925;SDS011;6529;50.566;9.774;2022-08-02T00:23:33;2.10;;;1.90;;
12925;SDS011;6529;50.566;9.774;2022-08-02T00:25:59;1.80;;;1.70;;
12925;SDS011;6529;50.566;9.774;2022-08-02T00:28:24;1.60;;;1.50;;
12925;SDS011;6529;50.566;9.774;2022-08-02T00:30:50;1.70;;;1.60;;
12925;SDS011;6529;50.566;9.774;2022-08-02T00:33:16;2.83;;;1.70;;
12925;SDS011;6529;50.566;9.774;2022-08-02T00:35:42;2.40;;;1.60;;
12925;SDS011;6529;50.566;9.774;2022-08-02T00:38:11;1.77;;;1.67;;
12925;SDS011;6529;50.566;9.774;2022-08-02T00:40:37;2.07;;;1.87;;
12925;SDS011;6529;50.566;9.774;2022-08-02T00:43:03;1.80;;;1.70;;
12925;SDS011;6529;50.566;9.774;2022-08-02T00:45:33;1.80;;;1.70;;
12925;SDS011;6529;50.566;9.774;2022-08-02T00:48:00;1.50;;;1.40;;
12925;SDS011;6529;50.566;9.774;2022-08-02T00:50:27;1.37;;;1.27;;
12925;SDS011;6529;50.566;9.774;2022-08-02T00:52:53;1.80;;;1.70;;
12925;SDS011;6529;50.566;9.774;2022-08-02T00:55:19;1.70;;;1.60;;
12925;SDS011;6529;50.566;9.774;2022-08-02T00:57:45;1.80;;;1.70;;
12925;SDS011;6529;50.566;9.774;2022-08-02T01:00:11;2.37;;;1.80;;
12925;SDS011;6529;50.566;9.774;2022-08-02T01:02:37;1.70;;;1.60;;
12925;SDS011;6529;50.566;9.774;2022-08-02T01:05:03;2.10;;;1.80;;
12925;SDS011;6529;50.566;9.774;2022-08-02T01:07:29;1.60;;;1.50;;
12925;SDS011;6529;50.566;9.774;2022-08-02T01:09:55;1.80;;;1.70;;
12925;SDS011;6529;50.566;9.774;2022-08-02T01:12:21;1.87;;;1.77;;
12925;SDS011;6529;50.566;9.774;2022-08-02T01:14:47;1.70;;;1.60;;
12925;SDS011;6529;50.566;9.774;2022-08-02T01:20:04;1.90;;;1.80;;
12925;SDS011;6529;50.566;9.774;2022-08-02T01:22:56;2.03;;;1.70;;
12925;SDS011;6529;50.566;9.774;2022-08-02T01:28:42;1.90;;;1.80;;
12925;SDS011;6529;50.566;9.774;2022-08-02T01:31:54;1.80;;;1.70;;
12925;SDS011;6529;50.566;9.774;2022-08-02T01:34:47;2.30;;;1.90;;
12925;SDS011;6529;50.566;9.774;2022-08-02T01:37:19;1.80;;;1.70;;
12925;SDS011;6529;50.566;9.774;2022-08-02T01:39:50;1.90;;;1.70;;
12925;SDS011;6529;50.566;9.774;2022-08-02T01:42:21;3.20;;;1.90;;
12925;SDS011;6529;50.566;9.774;2022-08-02T01:44:49;2.10;;;1.87;;
12925;SDS011;6529;50.566;9.774;2022-08-02T01:47:18;2.40;;;1.60;;
12925;SDS011;6529;50.566;9.774;2022-08-02T01:49:49;2.53;;;1.50;;
12925;SDS011;6529;50.566;9.774;2022-08-02T01:52:18;1.80;;;1.60;;
12925;SDS011;6529;50.566;9.774;2022-08-02T01:54:48;1.70;;;1.60;;
12925;SDS011;6529;50.566;9.774;2022-08-02T01:57:45;2.00;;;1.90;;
12925;SDS011;6529;50.566;9.774;2022-08-02T02:00:16;1.97;;;1.87;;
12925;SDS011;6529;50.566;9.774;2022-08-02T02:02:42;2.10;;;1.90;;
12925;SDS011;6529;50.566;9.774;2022-08-02T02:05:13;1.90;;;1.80;;
12925;SDS011;6529;50.566;9.774;2022-08-02T02:07:45;1.50;;;1.40;;
12925;SDS011;6529;50.566;9.774;2022-08-02T02:10:15;2.10;;;1.97;;
12925;SDS011;6529;50.566;9.774;2022-08-02T02:12:45;1.80;;;1.70;;
12925;SDS011;6529;50.566;9.774;2022-08-02T02:15:13;2.20;;;1.90;;
12925;SDS011;6529;50.566;9.774;2022-08-02T02:17:43;1.97;;;1.87;;
12925;SDS011;6529;50.566;9.774;2022-08-02T02:20:12;2.63;;;1.80;;
12925;SDS011;6529;50.566;9.774;2022-08-02T02:22:39;2.80;;;1.80;;
12925;SDS011;6529;50.566;9.774;2022-08-02T02:25:06;2.23;;;1.90;;
12925;SDS011;6529;50.566;9.774;2022-08-02T02:27:33;2.13;;;1.80;;
12925;SDS011;6529;50.566;9.774;2022-08-02T02:30:00;1.70;;;1.60;;
12925;SDS011;6529;50.566;9.774;2022-08-02T02:32:28;1.90;;;1.80;;
12925;SDS011;6529;50.566;9.774;2022-08-02T02:34:54;2.00;;;1.80;;
12925;SDS011;6529;50.566;9.774;2022-08-02T02:37:22;1.83;;;1.73;;
12925;SDS011;6529;50.566;9.774;2022-08-02T02:39:50;2.13;;;1.70;;
12925;SDS011;6529;50.566;9.774;2022-08-02T02:42:19;1.80;;;1.70;;
12925;SDS011;6529;50.566;9.774;2022-08-02T02:44:50;1.97;;;1.77;;
12925;SDS011;6529;50.566;9.774;2022-08-02T02:47:16;2.20;;;1.93;;
12925;SDS011;6529;50.566;9.774;2022-08-02T02:49:43;3.00;;;1.70;;
12925;SDS011;6529;50.566;9.774;2022-08-02T02:52:11;2.97;;;1.87;;
12925;SDS011;6529;50.566;9.774;2022-08-02T02:54:40;1.80;;;1.70;;
12925;SDS011;6529;50.566;9.774;2022-08-02T02:57:07;1.97;;;1.87;;
12925;SDS011;6529;50.566;9.774;2022-08-02T02:59:34;1.70;;;1.60;;
12925;SDS011;6529;50.566;9.774;2022-08-02T03:02:02;1.90;;;1.80;;
12925;SDS011;6529;50.566;9.774;2022-08-02T03:04:30;2.27;;;2.07;;
12925;SDS011;6529;50.566;9.774;2022-08-02T03:06:56;3.47;;;1.93;;
12925;SDS011;6529;50.566;9.774;2022-08-02T03:09:23;2.50;;;2.00;;
12925;SDS011;6529;50.566;9.774;2022-08-02T03:11:49;2.20;;;2.00;;
12925;SDS011;6529;50.566;9.774;2022-08-02T03:14:16;1.93;;;1.83;;
12925;SDS011;6529;50.566;9.774;2022-08-02T03:16:42;1.93;;;1.83;;
12925;SDS011;6529;50.566;9.774;2022-08-02T03:19:11;2.33;;;2.13;;
12925;SDS011;6529;50.566;9.774;2022-08-02T03:21:36;2.17;;;1.93;;
12925;SDS011;6529;50.566;9.774;2022-08-02T03:24:02;2.10;;;1.90;;
12925;SDS011;6529;50.566;9.774;2022-08-02T03:26:28;2.10;;;2.00;;
12925;SDS011;6529;50.566;9.774;2022-08-02T03:28:54;2.17;;;1.97;;
12925;SDS011;6529;50.566;9.774;2022-08-02T03:31:20;2.30;;;2.10;;
12925;SDS011;6529;50.566;9.774;2022-08-02T03:33:45;2.53;;;2.30;;
12925;SDS011;6529;50.566;9.774;2022-08-02T03:36:13;2.23;;;2.03;;
12925;SDS011;6529;50.566;9.774;2022-08-02T03:38:41;2.80;;;1.90;;
12925;SDS011;6529;50.566;9.774;2022-08-02T03:41:09;2.30;;;2.10;;
12925;SDS011;6529;50.566;9.774;2022-08-02T03:43:37;2.13;;;2.00;;
12925;SDS011;6529;50.566;9.774;2022-08-02T03:46:04;1.97;;;1.87;;
12925;SDS011;6529;50.566;9.774;2022-08-02T03:48:32;2.50;;;2.10;;
12925;SDS011;6529;50.566;9.774;2022-08-02T03:50:58;2.30;;;2.10;;
12925;SDS011;6529;50.566;9.774;2022-08-02T03:53:24;1.80;;;1.70;;
12925;SDS011;6529;50.566;9.774;2022-08-02T03:55:51;2.27;;;2.10;;
12925;SDS011;6529;50.566;9.774;2022-08-02T03:58:18;2.30;;;2.10;;
12925;SDS011;6529;50.566;9.774;2022-08-02T04:00:44;2.00;;;1.90;;
12925;SDS011;6529;50.566;9.774;2022-08-02T04:03:10;3.47;;;1.90;;
12925;SDS011;6529;50.566;9.774;2022-08-02T04:05:36;2.20;;;2.00;;
12925;SDS011;6529;50.566;9.774;2022-08-02T04:08:01;2.30;;;2.10;;
12925;SDS011;6529;50.566;9.774;2022-08-02T04:10:27;1.80;;;1.70;;
12925;SDS011;6529;50.566;9.774;2022-08-02T04:12:53;2.00;;;1.87;;
12925;SDS011;6529;50.566;9.774;2022-08-02T04:15:20;1.73;;;1.63;;
12925;SDS011;6529;50.566;9.774;2022-08-02T04:17:55;1.87;;;1.77;;
12925;SDS011;6529;50.566;9.774;2022-08-02T04:20:26;2.23;;;2.03;;
12925;SDS011;6529;50.566;9.774;2022-08-02T04:23:00;2.30;;;2.10;;
12925;SDS011;6529;50.566;9.774;2022-08-02T04:25:30;2.40;;;2.20;;
12925;SDS011;6529;50.566;9.774;2022-08-02T04:27:58;1.90;;;1.80;;
12925;SDS011;6529;50.566;9.774;2022-08-02T04:30:25;1.90;;;1.80;;
12925;SDS011;6529;50.566;9.774;2022-08-02T04:32:51;2.13;;;2.03;;
12925;SDS011;6529;50.566;9.774;2022-08-02T04:35:18;2.47;;;2.00;;
12925;SDS011;6529;50.566;9.774;2022-08-02T04:37:44;2.33;;;2.00;;
12925;SDS011;6529;50.566;9.774;2022-08-02T04:40:10;2.33;;;1.80;;
12925;SDS011;6529;50.566;9.774;2022-08-02T04:42:37;2.17;;;2.07;;
12925;SDS011;6529;50.566;9.774;2022-08-02T04:45:05;2.20;;;2.00;;
12925;SDS011;6529;50.566;9.774;2022-08-02T04:47:32;4.33;;;2.00;;
12925;SDS011;6529;50.566;9.774;2022-08-02T04:49:58;2.43;;;2.20;;
12925;SDS011;6529;50.566;9.774;2022-08-02T04:52:23;2.20;;;2.00;;
12925;SDS011;6529;50.566;9.774;2022-08-02T04:54:49;2.40;;;2.20;;
12925;SDS011;6529;50.566;9.774;2022-08-02T04:57:15;2.40;;;2.20;;
12925;SDS011;6529;50.566;9.774;2022-08-02T05:00:00;2.93;;;2.17;;
12925;SDS011;6529;50.566;9.774;2022-08-02T05:02:26;2.50;;;2.30;;
12925;SDS011;6529;50.566;9.774;2022-08-02T05:04:52;2.53;;;2.33;;
12925;SDS011;6529;50.566;9.774;2022-08-02T05:07:17;2.60;;;2.40;;
12925;SDS011;6529;50.566;9.774;2022-08-02T05:09:43;3.53;;;2.57;;
12925;SDS011;6529;50.566;9.774;2022-08-02T05:12:08;3.33;;;3.03;;
12925;SDS011;6529;50.566;9.774;2022-08-02T05:14:34;3.30;;;2.83;;
12925;SDS011;6529;50.566;9.774;2022-08-02T05:17:00;3.10;;;2.63;;
12925;SDS011;6529;50.566;9.774;2022-08-02T05:19:25;3.33;;;3.03;;
12925;SDS011;6529;50.566;9.774;2022-08-02T05:21:51;2.80;;;2.60;;
12925;SDS011;6529;50.566;9.774;2022-08-02T05:24:16;4.40;;;2.70;;
12925;SDS011;6529;50.566;9.774;2022-08-02T05:26:42;2.93;;;2.63;;
12925;SDS011;6529;50.566;9.774;2022-08-02T05:29:08;2.90;;;2.60;;
12925;SDS011;6529;50.566;9.774;2022-08-02T05:31:33;3.03;;;2.70;;
12925;SDS011;6529;50.566;9.774;2022-08-02T05:33:59;3.07;;;2.80;;
12925;SDS011;6529;50.566;9.774;2022-08-02T05:36:24;2.97;;;2.77;;
12925;SDS011;6529;50.566;9.774;2022-08-02T05:38:50;2.93;;;2.60;;
12925;SDS011;6529;50.566;9.774;2022-08-02T05:41:16;3.30;;;2.97;;
12925;SDS011;6529;50.566;9.774;2022-08-02T05:43:43;3.57;;;3.27;;
12925;SDS011;6529;50.566;9.774;2022-08-02T05:46:09;3.43;;;3.20;;
12925;SDS011;6529;50.566;9.774;2022-08-02T05:48:35;2.97;;;2.77;;
12925;SDS011;6529;50.566;9.774;2022-08-02T05:51:44;3.40;;;3.10;;
12925;SDS011;6529;50.566;9.774;2022-08-02T05:54:22;3.70;;;3.40;;
12925;SDS011;6529;50.566;9.774;2022-08-02T05:57:10;3.40;;;3.10;;
12925;SDS011;6529;50.566;9.774;2022-08-02T06:07:17;3.33;;;3.13;;
12925;SDS011;6529;50.566;9.774;2022-08-02T06:09:44;3.77;;;3.47;;
12925;SDS011;6529;50.566;9.774;2022-08-02T06:12:13;3.43;;;3.13;;
12925;SDS011;6529;50.566;9.774;2022-08-02T06:14:41;3.30;;;3.00;;
12925;SDS011;6529;50.566;9.774;2022-08-02T06:17:07;2.57;;;2.37;;
12925;SDS011;6529;50.566;9.774;2022-08-02T06:19:34;7.40;;;3.90;;
12925;SDS011;6529;50.566;9.774;2022-08-02T06:22:02;2.53;;;2.33;;
12925;SDS011;6529;50.566;9.774;2022-08-02T06:24:41;3.40;;;3.20;;
12925;SDS011;6529;50.566;9.774;2022-08-02T06:27:10;3.90;;;3.60;;
12925;SDS011;6529;50.566;9.774;2022-08-02T06:29:38;2.37;;;1.97;;
12925;SDS011;6529;50.566;9.774;2022-08-02T06:32:06;2.00;;;1.80;;
12925;SDS011;6529;50.566;9.774;2022-08-02T06:34:39;2.27;;;2.07;;
12925;SDS011;6529;50.566;9.774;2022-08-02T06:40:06;2.20;;;1.87;;
12925;SDS011;6529;50.566;9.774;2022-08-02T06:42:36;3.07;;;2.13;;
12925;SDS011;6529;50.566;9.774;2022-08-02T06:45:19;2.00;;;1.80;;
12925;SDS011;6529;50.566;9.774;2022-08-02T06:47:45;1.80;;;1.60;;
12925;SDS011;6529;50.566;9.774;2022-08-02T06:50:11;2.53;;;2.33;;
12925;SDS011;6529;50.566;9.774;2022-08-02T06:52:37;2.50;;;2.30;;
12925;SDS011;6529;50.566;9.774;2022-08-02T06:55:03;3.57;;;3.27;;
12925;SDS011;6529;50.566;9.774;2022-08-02T06:57:30;3.43;;;3.13;;
12925;SDS011;6529;50.566;9.774;2022-08-02T06:59:57;2.57;;;2.37;;
12925;SDS011;6529;50.566;9.774;2022-08-02T07:02:25;2.53;;;2.33;;
12925;SDS011;6529;50.566;9.774;2022-08-02T07:04:51;3.80;;;2.80;;
12925;SDS011;6529;50.566;9.774;2022-08-02T07:07:18;3.40;;;2.60;;
12925;SDS011;6529;50.566;9.774;2022-08-02T07:09:43;2.40;;;2.20;;
12925;SDS011;6529;50.566;9.774;2022-08-02T07:12:09;2.30;;;2.10;;
12925;SDS011;6529;50.566;9.774;2022-08-02T07:14:35;2.33;;;2.10;;
12925;SDS011;6529;50.566;9.774;2022-08-02T07:17:00;3.13;;;2.70;;
12925;SDS011;6529;50.566;9.774;2022-08-02T07:19:27;3.20;;;2.80;;
12925;SDS011;6529;50.566;9.774;2022-08-02T07:21:52;3.57;;;3.10;;
12925;SDS011;6529;50.566;9.774;2022-08-02T07:24:18;3.07;;;2.77;;
12925;SDS011;6529;50.566;9.774;2022-08-02T07:26:43;2.30;;;2.10;;
12925;SDS011;6529;50.566;9.774;2022-08-02T07:29:09;2.97;;;2.70;;
12925;SDS011;6529;50.566;9.774;2022-08-02T07:31:34;3.37;;;3.07;;
12925;SDS011;6529;50.566;9.774;2022-08-02T07:34:00;4.03;;;2.97;;
12925;SDS011;6529;50.566;9.774;2022-08-02T07:36:26;2.70;;;2.50;;
12925;SDS011;6529;50.566;9.774;2022-08-02T07:38:51;2.57;;;1.90;;
12925;SDS011;6529;50.566;9.774;2022-08-02T07:41:17;2.70;;;2.45;;
12925;SDS011;6529;50.566;9.774;2022-08-02T07:43:43;4.28;;;2.30;;
12925;SDS011;6529;50.566;9.774;2022-08-02T07:46:08;2.35;;;2.03;;
12925;SDS011;6529;50.566;9.774;2022-08-02T07:48:34;2.35;;;1.95;;
12925;SDS011;6529;50.566;9.774;2022-08-02T07:50:59;2.17;;;1.90;;
12925;SDS011;6529;50.566;9.774;2022-08-02T07:53:25;2.25;;;1.60;;
12925;SDS011;6529;50.566;9.774;2022-08-02T07:55:50;2.28;;;2.08;;
12925;SDS011;6529;50.566;9.774;2022-08-02T07:58:16;2.10;;;1.90;;
12925;SDS011;6529;50.566;9.774;2022-08-02T08:00:42;1.70;;;1.60;;
12925;SDS011;6529;50.566;9.774;2022-08-02T08:03:08;1.50;;;1.40;;
12925;SDS011;6529;50.566;9.774;2022-08-02T08:05:33;1.70;;;1.60;;
12925;SDS011;6529;50.566;9.774;2022-08-02T08:08:00;1.70;;;1.60;;
12925;SDS011;6529;50.566;9.774;2022-08-02T08:10:25;2.10;;;1.70;;
12925;SDS011;6529;50.566;9.774;2022-08-02T08:12:51;2.15;;;1.70;;
12925;SDS011;6529;50.566;9.774;2022-08-02T08:15:16;2.20;;;2.00;;
12925;SDS011;6529;50.566;9.774;2022-08-02T08:17:42;1.73;;;1.63;;
12925;SDS011;6529;50.566;9.774;2022-08-02T08:20:08;1.50;;;1.40;;
12925;SDS011;6529;50.566;9.774;2022-08-02T08:22:33;1.80;;;1.70;;
12925;SDS011;6529;50.566;9.774;2022-08-02T08:24:59;1.58;;;1.48;;
12925;SDS011;6529;50.566;9.774;2022-08-02T08:27:25;2.25;;;1.70;;
12925;SDS011;6529;50.566;9.774;2022-08-02T08:29:50;1.88;;;1.77;;
12925;SDS011;6529;50.566;9.774;2022-08-02T08:32:16;1.70;;;1.60;;
12925;SDS011;6529;50.566;9.774;2022-08-02T08:34:43;1.90;;;1.75;;
12925;SDS011;6529;50.566;9.774;2022-08-02T08:37:09;2.20;;;1.50;;
12925;SDS011;6529;50.566;9.774;2022-08-02T08:39:34;1.65;;;1.33;;
12925;SDS011;6529;50.566;9.774;2022-08-02T08:42:01;1.30;;;1.20;;
12925;SDS011;6529;50.566;9.774;2022-08-02T08:44:31;1.50;;;1.23;;
12925;SDS011;6529;50.566;9.774;2022-08-02T08:46:57;1.30;;;1.20;;
12925;SDS011;6529;50.566;9.774;2022-08-02T08:49:30;2.15;;;1.35;;
12925;SDS011;6529;50.566;9.774;2022-08-02T08:52:04;2.10;;;1.60;;
12925;SDS011;6529;50.566;9.774;2022-08-02T08:54:32;5.28;;;1.88;;
12925;SDS011;6529;50.566;9.774;2022-08-02T08:57:01;1.35;;;1.25;;
12925;SDS011;6529;50.566;9.774;2022-08-02T08:59:29;1.30;;;1.20;;
12925;SDS011;6529;50.566;9.774;2022-08-02T09:01:54;0.93;;;0.93;;
12925;SDS011;6529;50.566;9.774;2022-08-02T09:04:21;1.38;;;1.25;;
12925;SDS011;6529;50.566;9.774;2022-08-02T09:06:47;1.25;;;1.10;;
12925;SDS011;6529;50.566;9.774;2022-08-02T09:09:12;0.77;;;0.77;;
12925;SDS011;6529;50.566;9.774;2022-08-02T09:11:38;0.90;;;0.90;;
12925;SDS011;6529;50.566;9.774;2022-08-02T09:14:04;1.00;;;1.00;;
12925;SDS011;6529;50.566;9.774;2022-08-02T09:16:34;0.90;;;0.90;;
12925;SDS011;6529;50.566;9.774;2022-08-02T09:21:44;0.90;;;0.90;;
12925;SDS011;6529;50.566;9.774;2022-08-02T09:24:17;0.80;;;0.80;;
12925;SDS011;6529;50.566;9.774;2022-08-02T09:26:44;1.10;;;1.00;;
12925;SDS011;6529;50.566;9.774;2022-08-02T09:29:11;1.95;;;1.08;;
12925;SDS011;6529;50.566;9.774;2022-08-02T09:31:37;2.05;;;1.30;;
12925;SDS011;6529;50.566;9.774;2022-08-02T09:34:03;1.25;;;1.15;;
12925;SDS011;6529;50.566;9.774;2022-08-02T09:36:39;2.72;;;1.10;;
12925;SDS011;6529;50.566;9.774;2022-08-02T09:39:07;1.20;;;1.10;;
12925;SDS011;6529;50.566;9.774;2022-08-02T09:41:35;0.90;;;0.90;;
12925;SDS011;6529;50.566;9.774;2022-08-02T09:44:05;2.42;;;1.10;;
12925;SDS011;6529;50.566;9.774;2022-08-02T09:46:32;1.60;;;1.20;;
12925;SDS011;6529;50.566;9.774;2022-08-02T09:49:02;1.45;;;1.27;;
12925;SDS011;6529;50.566;9.774;2022-08-02T09:51:33;1.05;;;0.98;;
12925;SDS011;6529;50.566;9.774;2022-08-02T09:54:16;0.90;;;0.90;;
12925;SDS011;6529;50.566;9.774;2022-08-02T09:56:47;1.05;;;0.98;;
12925;SDS011;6529;50.566;9.774;2022-08-02T09:59:19;1.00;;;1.00;;
12925;SDS011;6529;50.566;9.774;2022-08-02T10:01:47;1.20;;;1.10;;
12925;SDS011;6529;50.566;9.774;2022-08-02T10:04:14;1.13;;;1.05;;
12925;SDS011;6529;50.566;9.774;2022-08-02T10:06:43;0.90;;;0.90;;
12925;SDS011;6529;50.566;9.774;2022-08-02T10:09:10;0.93;;;0.90;;
12925;SDS011;6529;50.566;9.774;2022-08-02T10:11:37;1.10;;;1.00;;
12925;SDS011;6529;50.566;9.774;2022-08-02T10:14:03;0.90;;;0.90;;
12925;SDS011;6529;50.566;9.774;2022-08-02T10:16:32;0.80;;;0.80;;
12925;SDS011;6529;50.566;9.774;2022-08-02T10:18:59;1.17;;;0.90;;
12925;SDS011;6529;50.566;9.774;2022-08-02T10:21:29;1.42;;;1.00;;
12925;SDS011;6529;50.566;9.774;2022-08-02T10:24:06;1.00;;;1.00;;
12925;SDS011;6529;50.566;9.774;2022-08-02T10:26:52;1.10;;;1.00;;
12925;SDS011;6529;50.566;9.774;2022-08-02T10:29:20;1.25;;;1.00;;
12925;SDS011;6529;50.566;9.774;2022-08-02T10:31:55;1.15;;;1.00;;
12925;SDS011;6529;50.566;9.774;2022-08-02T10:34:32;0.90;;;0.90;;
12925;SDS011;6529;50.566;9.774;2022-08-02T10:37:02;1.02;;;1.00;;
12925;SDS011;6529;50.566;9.774;2022-08-02T10:39:37;1.10;;;1.00;;
12925;SDS011;6529;50.566;9.774;2022-08-02T10:42:06;1.00;;;0.90;;
12925;SDS011;6529;50.566;9.774;2022-08-02T10:44:32;1.00;;;0.90;;
12925;SDS011;6529;50.566;9.774;2022-08-02T10:50:14;0.60;;;0.60;;
12925;SDS011;6529;50.566;9.774;2022-08-02T10:52:32;0.80;;;0.80;;
12925;SDS011;6529;50.566;9.774;2022-08-02T10:54:59;0.75;;;0.75;;
12925;SDS011;6529;50.566;9.774;2022-08-02T11:00:00;0.63;;;0.63;;
12925;SDS011;6529;50.566;9.774;2022-08-02T11:02:41;0.80;;;0.80;;
12925;SDS011;6529;50.566;9.774;2022-08-02T11:05:12;1.30;;;1.20;;
12925;SDS011;6529;50.566;9.774;2022-08-02T11:07:41;0.85;;;0.70;;
12925;SDS011;6529;50.566;9.774;2022-08-02T11:13:11;0.60;;;0.60;;
12925;SDS011;6529;50.566;9.774;2022-08-02T11:21:25;0.88;;;0.88;;
12925;SDS011;6529;50.566;9.774;2022-08-02T11:23:53;0.80;;;0.80;;
12925;SDS011;6529;50.566;9.774;2022-08-02T11:29:00;0.55;;;0.55;;
12925;SDS011;6529;50.566;9.774;2022-08-02T11:31:27;1.95;;;0.70;;
12925;SDS011;6529;50.566;9.774;2022-08-02T11:33:54;0.75;;;0.75;;
12925;SDS011;6529;50.566;9.774;2022-08-02T11:36:19;1.02;;;0.70;;
12925;SDS011;6529;50.566;9.774;2022-08-02T11:38:45;1.60;;;1.00;;
12925;SDS011;6529;50.566;9.774;2022-08-02T11:41:18;0.90;;;0.90;;
12925;SDS011;6529;50.566;9.774;2022-08-02T11:43:44;1.00;;;0.90;;
12925;SDS011;6529;50.566;9.774;2022-08-02T11:46:13;1.00;;;0.90;;
12925;SDS011;6529;50.566;9.774;2022-08-02T11:51:08;1.20;;;1.10;;
12925;SDS011;6529;50.566;9.774;2022-08-02T11:56:09;1.55;;;1.08;;
12925;SDS011;6529;50.566;9.774;2022-08-02T11:58:36;2.35;;;1.77;;
12925;SDS011;6529;50.566;9.774;2022-08-02T12:01:02;1.02;;;1.02;;
12925;SDS011;6529;50.566;9.774;2022-08-02T12:03:32;1.13;;;1.02;;
12925;SDS011;6529;50.566;9.774;2022-08-02T12:06:02;1.13;;;1.10;;
12925;SDS011;6529;50.566;9.774;2022-08-02T12:08:29;1.40;;;1.23;;
12925;SDS011;6529;50.566;9.774;2022-08-02T12:13:44;1.20;;;1.00;;
12925;SDS011;6529;50.566;9.774;2022-08-02T12:16:10;1.67;;;1.35;;
12925;SDS011;6529;50.566;9.774;2022-08-02T12:18:56;1.40;;;1.17;;
12925;SDS011;6529;50.566;9.774;2022-08-02T12:21:40;1.48;;;1.20;;
12925;SDS011;6529;50.566;9.774;2022-08-02T12:24:06;2.10;;;1.13;;
12925;SDS011;6529;50.566;9.774;2022-08-02T12:26:44;1.30;;;1.20;;
12925;SDS011;6529;50.566;9.774;2022-08-02T12:29:11;1.27;;;1.17;;
12925;SDS011;6529;50.566;9.774;2022-08-02T12:31:41;1.70;;;1.30;;
12925;SDS011;6529;50.566;9.774;2022-08-02T12:34:16;1.60;;;1.20;;
12925;SDS011;6529;50.566;9.774;2022-08-02T12:36:55;1.55;;;1.30;;
12925;SDS011;6529;50.566;9.774;2022-08-02T12:39:31;1.55;;;1.20;;
12925;SDS011;6529;50.566;9.774;2022-08-02T12:42:08;2.55;;;1.42;;
12925;SDS011;6529;50.566;9.774;2022-08-02T12:44:48;1.40;;;1.30;;
12925;SDS011;6529;50.566;9.774;2022-08-02T12:47:18;0.93;;;0.90;;
12925;SDS011;6529;50.566;9.774;2022-08-02T12:49:45;0.40;;;0.40;;
12925;SDS011;6529;50.566;9.774;2022-08-02T12:52:21;0.47;;;0.47;;
12925;SDS011;6529;50.566;9.774;2022-08-02T12:54:48;2.08;;;0.60;;
12925;SDS011;6529;50.566;9.774;2022-08-02T12:57:18;0.70;;;0.70;;
12925;SDS011;6529;50.566;9.774;2022-08-02T12:59:48;2.10;;;0.65;;
12925;SDS011;6529;50.566;9.774;2022-08-02T13:02:16;0.70;;;0.70;;
12925;SDS011;6529;50.566;9.774;2022-08-02T13:04:42;0.98;;;0.88;;
12925;SDS011;6529;50.566;9.774;2022-08-02T13:07:08;0.95;;;0.88;;
12925;SDS011;6529;50.566;9.774;2022-08-02T13:09:35;1.08;;;0.80;;
12925;SDS011;6529;50.566;9.774;2022-08-02T13:12:02;1.50;;;0.70;;
12925;SDS011;6529;50.566;9.774;2022-08-02T13:14:28;0.82;;;0.80;;
12925;SDS011;6529;50.566;9.774;2022-08-02T13:16:54;0.80;;;0.80;;
12925;SDS011;6529;50.566;9.774;2022-08-02T13:19:20;0.70;;;0.70;;
12925;SDS011;6529;50.566;9.774;2022-08-02T13:21:45;1.52;;;0.90;;
12925;SDS011;6529;50.566;9.774;2022-08-02T13:24:12;1.15;;;0.77;;
12925;SDS011;6529;50.566;9.774;2022-08-02T13:26:42;0.75;;;0.75;;
12925;SDS011;6529;50.566;9.774;2022-08-02T13:29:08;0.80;;;0.80;;
12925;SDS011;6529;50.566;9.774;2022-08-02T13:31:34;0.63;;;0.63;;
12925;SDS011;6529;50.566;9.774;2022-08-02T13:34:02;0.73;;;0.73;;
12925;SDS011;6529;50.566;9.774;2022-08-02T13:36:32;2.03;;;1.35;;
12925;SDS011;6529;50.566;9.774;2022-08-02T13:39:00;1.00;;;0.90;;
12925;SDS011;6529;50.566;9.774;2022-08-02T13:41:27;0.75;;;0.60;;
12925;SDS011;6529;50.566;9.774;2022-08-02T13:43:53;0.93;;;0.60;;
12925;SDS011;6529;50.566;9.774;2022-08-02T13:46:18;0.70;;;0.70;;
12925;SDS011;6529;50.566;9.774;2022-08-02T13:48:44;0.88;;;0.88;;
12925;SDS011;6529;50.566;9.774;2022-08-02T13:51:10;0.88;;;0.80;;
12925;SDS011;6529;50.566;9.774;2022-08-02T13:53:38;0.95;;;0.95;;
12925;SDS011;6529;50.566;9.774;2022-08-02T13:56:04;0.70;;;0.70;;
12925;SDS011;6529;50.566;9.774;2022-08-02T13:58:29;0.80;;;0.80;;
12925;SDS011;6529;50.566;9.774;2022-08-02T14:00:55;0.90;;;0.80;;
12925;SDS011;6529;50.566;9.774;2022-08-02T14:03:21;0.88;;;0.88;;
12925;SDS011;6529;50.566;9.774;2022-08-02T14:05:46;0.90;;;0.90;;
12925;SDS011;6529;50.566;9.774;2022-08-02T14:08:12;0.80;;;0.80;;
12925;SDS011;6529;50.566;9.774;2022-08-02T14:10:38;0.75;;;0.70;;
12925;SDS011;6529;50.566;9.774;2022-08-02T14:13:04;0.90;;;0.80;;
12925;SDS011;6529;50.566;9.774;2022-08-02T14:15:29;0.77;;;0.70;;
12925;SDS011;6529;50.566;9.774;2022-08-02T14:17:55;0.63;;;0.63;;
12925;SDS011;6529;50.566;9.774;2022-08-02T14:20:21;0.80;;;0.70;;
12925;SDS011;6529;50.566;9.774;2022-08-02T14:22:46;0.70;;;0.70;;
12925;SDS011;6529;50.566;9.774;2022-08-02T14:25:12;0.82;;;0.73;;
12925;SDS011;6529;50.566;9.774;2022-08-02T14:27:37;0.80;;;0.80;;
12925;SDS011;6529;50.566;9.774;2022-08-02T14:30:03;2.40;;;1.00;;
12925;SDS011;6529;50.566;9.774;2022-08-02T14:32:29;1.13;;;0.90;;
12925;SDS011;6529;50.566;9.774;2022-08-02T14:34:55;0.90;;;0.90;;
12925;SDS011;6529;50.566;9.774;2022-08-02T14:37:20;1.10;;;1.00;;
12925;SDS011;6529;50.566;9.774;2022-08-02T14:39:46;1.00;;;0.90;;
12925;SDS011;6529;50.566;9.774;2022-08-02T14:42:12;1.52;;;1.20;;
12925;SDS011;6529;50.566;9.774;2022-08-02T14:44:37;0.80;;;0.80;;
12925;SDS011;6529;50.566;9.774;2022-08-02T14:47:03;0.80;;;0.80;;
12925;SDS011;6529;50.566;9.774;2022-08-02T14:49:32;1.05;;;0.90;;
12925;SDS011;6529;50.566;9.774;2022-08-02T14:51:57;1.00;;;0.90;;
12925;SDS011;6529;50.566;9.774;2022-08-02T14:54:24;1.23;;;1.00;;
12925;SDS011;6529;50.566;9.774;2022-08-02T14:56:52;1.15;;;0.98;;
12925;SDS011;6529;50.566;9.774;2022-08-02T14:59:18;1.42;;;1.08;;
12925;SDS011;6529;50.566;9.774;2022-08-02T15:01:44;1.05;;;0.88;;
12925;SDS011;6529;50.566;9.774;2022-08-02T15:04:09;0.90;;;0.90;;
12925;SDS011;6529;50.566;9.774;2022-08-02T15:06:35;2.10;;;1.08;;
12925;SDS011;6529;50.566;9.774;2022-08-02T15:09:00;1.00;;;1.00;;
12925;SDS011;6529;50.566;9.774;2022-08-02T15:11:26;1.10;;;1.00;;
12925;SDS011;6529;50.566;9.774;2022-08-02T15:13:52;1.25;;;1.00;;
12925;SDS011;6529;50.566;9.774;2022-08-02T15:16:17;1.10;;;1.00;;
12925;SDS011;6529;50.566;9.774;2022-08-02T15:18:43;1.00;;;0.90;;
12925;SDS011;6529;50.566;9.774;2022-08-02T15:21:09;1.30;;;1.00;;
12925;SDS011;6529;50.566;9.774;2022-08-02T15:23:35;1.27;;;1.10;;
12925;SDS011;6529;50.566;9.774;2022-08-02T15:26:01;1.10;;;0.95;;
12925;SDS011;6529;50.566;9.774;2022-08-02T15:28:27;1.30;;;1.10;;
12925;SDS011;6529;50.566;9.774;2022-08-02T15:30:55;1.55;;;1.10;;
12925;SDS011;6529;50.566;9.774;2022-08-02T15:33:21;1.70;;;1.27;;
12925;SDS011;6529;50.566;9.774;2022-08-02T15:35:47;0.80;;;0.80;;
12925;SDS011;6529;50.566;9.774;2022-08-02T15:38:13;2.10;;;1.20;;
12925;SDS011;6529;50.566;9.774;2022-08-02T15:40:39;1.10;;;1.00;;
12925;SDS011;6529;50.566;9.774;2022-08-02T15:43:06;1.88;;;1.15;;
12925;SDS011;6529;50.566;9.774;2022-08-02T15:45:33;1.58;;;0.90;;
12925;SDS011;6529;50.566;9.774;2022-08-02T15:48:02;1.33;;;1.10;;
12925;SDS011;6529;50.566;9.774;2022-08-02T15:50:28;1.00;;;1.00;;